createdAt,value
2019-05-16T00:03:51.590Z,5.70
2019-05-16T00:07:50.691Z,5.60
2019-05-16T00:11:49.273Z,5.50
2019-05-16T00:15:48.221Z,5.50
2019-05-16T00:19:48.424Z,5.50
2019-05-16T00:28:13.371Z,5.60
2019-05-16T00:32:11.951Z,5.50
2019-05-16T00:36:27.659Z,5.40
2019-05-16T00:40:34.650Z,5.30
2019-05-16T00:44:34.852Z,5.30
2019-05-16T00:48:33.396Z,5.30
2019-05-16T00:52:39.653Z,5.30
2019-05-16T00:56:38.146Z,5.30
2019-05-16T01:00:55.175Z,5.40
2019-05-16T01:04:54.320Z,5.40
2019-05-16T01:08:52.939Z,5.40
2019-05-16T01:13:00.982Z,5.30
2019-05-16T01:16:59.548Z,5.30
2019-05-16T01:20:59.925Z,5.30
2019-05-16T01:24:58.648Z,5.30
2019-05-16T01:28:57.697Z,5.30
2019-05-16T01:33:00.962Z,5.40
2019-05-16T01:37:00.221Z,5.50
2019-05-16T01:40:59.623Z,5.50
2019-05-16T01:45:02.952Z,5.50
2019-05-16T01:49:11.279Z,5.50
2019-05-16T01:53:12.937Z,5.50
2019-05-16T01:57:12.025Z,5.60
2019-05-16T02:01:18.737Z,5.70
2019-05-16T02:05:18.861Z,5.80
2019-05-16T02:09:28.019Z,5.80
2019-05-16T02:13:39.060Z,5.90
2019-05-16T02:17:28.926Z,6.00
2019-05-16T02:21:41.805Z,6.10
2019-05-16T02:25:42.701Z,6.20
2019-05-16T02:29:50.726Z,6.00
2019-05-16T02:33:51.446Z,5.90
2019-05-16T02:37:54.701Z,5.90
2019-05-16T02:41:52.041Z,5.80
2019-05-16T02:45:51.970Z,5.90
2019-05-16T02:49:56.542Z,5.90
2019-05-16T02:53:55.126Z,6.10
2019-05-16T02:58:01.765Z,6.30
2019-05-16T03:02:01.104Z,6.50
2019-05-16T03:06:01.326Z,6.60
2019-05-16T03:10:02.404Z,6.70
2019-05-16T03:14:05.825Z,6.60
2019-05-16T03:18:04.781Z,6.50
2019-05-16T03:22:08.036Z,6.50
2019-05-16T03:26:07.484Z,6.50
2019-05-16T03:30:07.255Z,6.50
2019-05-16T03:34:14.869Z,6.60
2019-05-16T03:38:14.921Z,6.70
2019-05-16T03:42:20.435Z,6.70
2019-05-16T03:46:21.504Z,6.70
2019-05-16T03:50:21.849Z,6.70
2019-05-16T03:54:21.197Z,6.80
2019-05-16T03:58:24.140Z,6.90
2019-05-16T04:02:23.793Z,6.90
2019-05-16T04:06:25.489Z,6.80
2019-05-16T04:10:24.049Z,6.80
2019-05-16T04:14:23.939Z,6.90
2019-05-16T04:18:25.409Z,7.00
2019-05-16T04:22:37.211Z,7.00
2019-05-16T04:26:36.187Z,7.10
2019-05-16T04:30:41.327Z,7.20
2019-05-16T04:34:41.797Z,7.30
2019-05-16T04:38:46.499Z,7.30
2019-05-16T04:42:43.338Z,7.40
2019-05-16T04:46:44.057Z,7.50
2019-05-16T04:50:44.753Z,7.50
2019-05-16T04:54:43.306Z,7.60
2019-05-16T04:58:42.076Z,7.70
2019-05-16T05:02:42.017Z,7.80
2019-05-16T05:06:51.272Z,7.90
2019-05-16T05:10:51.341Z,7.90
2019-05-16T05:14:56.573Z,7.90
2019-05-16T05:18:55.419Z,8.00
2019-05-16T05:23:00.436Z,8.10
2019-05-16T05:26:59.770Z,8.10
2019-05-16T05:30:59.799Z,8.20
2019-05-16T05:35:00.823Z,8.50
2019-05-16T05:39:11.229Z,8.80
2019-05-16T05:43:02.707Z,9.00
2019-05-16T05:47:10.704Z,9.20
2019-05-16T05:51:11.040Z,9.30
2019-05-16T05:55:10.572Z,9.70
2019-05-16T05:59:11.481Z,10.10
2019-05-16T06:03:13.812Z,10.30
2019-05-16T06:11:43.970Z,10.30
2019-05-16T06:15:50.836Z,10.40
2019-05-16T06:19:49.695Z,10.60
2019-05-16T06:23:52.269Z,10.80
2019-05-16T06:27:55.769Z,10.90
2019-05-16T06:31:56.234Z,10.60
2019-05-16T06:35:57.138Z,10.20
2019-05-16T06:40:02.841Z,9.90
2019-05-16T06:44:01.578Z,9.80
2019-05-16T06:48:00.782Z,9.80
2019-05-16T06:51:59.865Z,9.80
2019-05-16T06:56:00.127Z,9.80
2019-05-16T07:00:00.668Z,9.90
2019-05-16T07:04:06.007Z,10.00
2019-05-16T07:08:04.659Z,10.00
2019-05-16T07:12:10.438Z,10.10
2019-05-16T07:16:09.667Z,10.10
2019-05-16T07:20:14.507Z,10.30
2019-05-16T07:24:13.459Z,10.50
2019-05-16T07:28:15.172Z,10.80
2019-05-16T07:32:13.505Z,10.90
2019-05-16T07:36:12.161Z,11.10
2019-05-16T07:40:19.028Z,11.30
2019-05-16T07:44:11.367Z,11.50
2019-05-16T07:48:10.693Z,11.40
2019-05-16T07:52:15.573Z,11.50
2019-05-16T07:56:14.379Z,11.70
2019-05-16T08:00:13.156Z,11.60
2019-05-16T08:04:11.730Z,11.60
2019-05-16T08:08:10.593Z,11.40
2019-05-16T08:12:10.522Z,11.40
2019-05-16T08:16:10.751Z,11.60
2019-05-16T08:20:11.218Z,11.80
2019-05-16T08:24:14.962Z,12.10
2019-05-16T08:28:14.267Z,12.60
2019-05-16T08:32:22.922Z,13.00
2019-05-16T08:36:21.591Z,13.40
2019-05-16T08:40:21.767Z,14.10
2019-05-16T08:44:21.533Z,14.70
2019-05-16T08:48:22.906Z,14.70
2019-05-16T08:52:31.719Z,14.60
2019-05-16T08:56:31.461Z,14.80
2019-05-16T09:00:26.694Z,15.00
2019-05-16T09:04:26.006Z,15.00
2019-05-16T09:08:24.702Z,14.30
2019-05-16T09:12:23.302Z,13.90
2019-05-16T09:16:27.899Z,13.50
2019-05-16T09:20:28.258Z,13.50
2019-05-16T09:24:27.345Z,13.70
2019-05-16T09:28:28.319Z,13.90
2019-05-16T09:32:27.873Z,14.30
2019-05-16T09:36:28.083Z,14.80
2019-05-16T09:40:28.477Z,14.80
2019-05-16T09:44:32.843Z,14.90
2019-05-16T09:48:31.456Z,14.90
2019-05-16T09:52:36.852Z,14.90
2019-05-16T09:56:37.377Z,14.80
2019-05-16T10:00:47.079Z,14.40
2019-05-16T10:04:47.714Z,14.60
2019-05-16T10:08:46.504Z,14.80
2019-05-16T10:12:45.613Z,15.00
2019-05-16T10:16:44.242Z,15.10
2019-05-16T10:20:43.156Z,15.20
2019-05-16T10:24:46.808Z,14.80
2019-05-16T10:28:58.124Z,15.00
2019-05-16T10:33:00.865Z,15.50
2019-05-16T10:36:58.760Z,15.50
2019-05-16T10:40:57.319Z,15.50
2019-05-16T10:44:57.778Z,15.70
2019-05-16T10:49:01.307Z,16.00
2019-05-16T10:53:22.524Z,16.20
2019-05-16T10:57:11.076Z,16.30
2019-05-16T11:01:24.247Z,16.20
2019-05-16T11:05:28.764Z,16.20
2019-05-16T11:09:17.565Z,16.30
2019-05-16T11:13:17.141Z,16.60
2019-05-16T11:17:19.014Z,17.20
2019-05-16T11:21:19.138Z,17.30
2019-05-16T11:25:28.110Z,17.10
2019-05-16T11:29:17.744Z,16.90
2019-05-16T11:33:21.542Z,16.90
2019-05-16T11:37:20.103Z,17.10
2019-05-16T11:41:22.725Z,17.40
2019-05-16T11:45:27.198Z,17.40
2019-05-16T11:49:32.678Z,16.80
2019-05-16T11:53:31.273Z,17.20
2019-05-16T11:57:38.107Z,17.40
2019-05-16T12:01:43.009Z,17.50
2019-05-16T12:05:47.990Z,16.90
2019-05-16T12:09:55.146Z,17.00
2019-05-16T12:13:56.695Z,16.80
2019-05-16T12:18:02.031Z,17.00
2019-05-16T12:22:03.186Z,17.40
2019-05-16T12:26:00.937Z,18.00
2019-05-16T12:30:01.727Z,18.70
2019-05-16T12:34:00.304Z,18.20
2019-05-16T12:38:08.031Z,18.10
2019-05-16T12:42:08.538Z,18.00
2019-05-16T12:46:07.560Z,17.90
2019-05-16T12:50:28.988Z,18.00
2019-05-16T12:54:27.750Z,17.60
2019-05-16T12:58:38.098Z,16.60
2019-05-16T13:02:31.564Z,15.80
2019-05-16T13:06:36.948Z,15.50
2019-05-16T13:10:37.960Z,15.40
2019-05-16T13:14:44.493Z,15.50
2019-05-16T13:18:42.703Z,15.60
2019-05-16T13:22:41.578Z,15.90
2019-05-16T13:26:40.174Z,16.60
2019-05-16T13:30:38.873Z,16.60
2019-05-16T13:34:38.030Z,16.60
2019-05-16T13:38:40.758Z,16.20
2019-05-16T13:42:39.547Z,15.90
2019-05-16T13:46:38.259Z,15.60
2019-05-16T13:50:39.687Z,15.40
2019-05-16T13:54:37.020Z,15.50
2019-05-16T13:58:37.415Z,15.70
2019-05-16T14:02:39.041Z,15.60
2019-05-16T14:06:37.602Z,15.70
2019-05-16T14:10:37.461Z,15.60
2019-05-16T14:14:41.963Z,15.40
2019-05-16T14:18:38.485Z,15.40
2019-05-16T14:22:37.187Z,15.20
2019-05-16T14:26:42.145Z,14.90
2019-05-16T14:30:40.838Z,14.60
2019-05-16T14:34:39.500Z,14.40
2019-05-16T14:38:46.630Z,14.30
2019-05-16T14:42:47.983Z,14.40
2019-05-16T14:46:47.516Z,14.50
2019-05-16T14:50:49.302Z,15.00
2019-05-16T14:54:47.933Z,15.20
2019-05-16T14:58:48.575Z,15.70
2019-05-16T15:02:48.139Z,16.10
2019-05-16T15:06:47.445Z,16.30
2019-05-16T15:10:46.869Z,16.00
2019-05-16T15:14:45.926Z,15.80
2019-05-16T15:18:47.199Z,15.50
2019-05-16T15:22:47.280Z,15.00
2019-05-16T15:26:50.922Z,14.60
2019-05-16T15:30:57.485Z,14.70
2019-05-16T15:34:57.163Z,15.10
2019-05-16T15:39:16.977Z,14.90
2019-05-16T15:43:18.023Z,14.80
2019-05-16T15:47:19.985Z,14.90
2019-05-16T15:51:21.188Z,15.10
2019-05-16T15:55:21.667Z,15.30
2019-05-16T15:59:22.686Z,15.50
2019-05-16T16:03:21.211Z,15.30
2019-05-16T16:07:19.859Z,14.40
2019-05-16T16:11:18.442Z,13.90
2019-05-16T16:15:18.282Z,13.70
2019-05-16T16:19:17.473Z,13.60
2019-05-16T16:23:17.717Z,13.40
2019-05-16T16:27:22.710Z,13.40
2019-05-16T16:31:21.351Z,13.40
2019-05-16T16:35:22.994Z,13.30
2019-05-16T16:39:21.787Z,13.30
2019-05-16T16:43:24.157Z,13.00
2019-05-16T16:47:22.254Z,12.70
2019-05-16T16:51:21.294Z,12.70
2019-05-16T16:55:23.072Z,12.70
2019-05-16T16:59:21.719Z,12.70
2019-05-16T17:03:20.276Z,12.70
2019-05-16T17:07:19.926Z,12.60
2019-05-16T17:11:22.993Z,12.60
2019-05-16T17:15:27.220Z,12.50
2019-05-16T17:19:24.395Z,12.60
2019-05-16T17:23:31.494Z,12.70
2019-05-16T17:27:37.505Z,12.60
2019-05-16T17:31:32.820Z,12.50
2019-05-16T17:35:31.439Z,12.40
2019-05-16T17:39:29.927Z,12.20
2019-05-16T17:43:36.276Z,12.00
2019-05-16T17:47:37.025Z,11.80
2019-05-16T17:51:36.724Z,11.80
2019-05-16T17:55:36.863Z,11.70
2019-05-16T17:59:57.461Z,11.60
2019-05-16T18:03:58.343Z,11.50
2019-05-16T18:07:57.702Z,11.50
2019-05-16T18:11:57.422Z,11.50
2019-05-16T18:16:04.641Z,11.50
2019-05-16T18:20:06.712Z,11.40
2019-05-16T18:24:07.020Z,11.30
2019-05-16T18:28:07.872Z,11.20
2019-05-16T18:32:09.970Z,11.10
2019-05-16T18:36:08.511Z,11.00
2019-05-16T18:40:08.236Z,11.00
2019-05-16T18:44:12.270Z,10.90
2019-05-16T18:48:14.866Z,10.80
2019-05-16T18:52:20.520Z,10.60
2019-05-16T18:56:27.211Z,10.50
2019-05-16T19:00:26.749Z,10.30
2019-05-16T19:04:27.469Z,10.40
2019-05-16T19:08:27.288Z,10.50
2019-05-16T19:12:26.361Z,10.60
2019-05-16T19:16:26.261Z,10.60
2019-05-16T19:20:48.978Z,10.30
2019-05-16T19:24:47.593Z,10.10
2019-05-16T19:29:03.666Z,10.00
2019-05-16T19:33:07.672Z,9.90
2019-05-16T19:37:07.021Z,9.80
2019-05-16T19:41:08.173Z,9.70
2019-05-16T19:45:10.294Z,9.70
2019-05-16T19:53:33.361Z,9.70
2019-05-16T19:57:32.401Z,9.70
2019-05-16T20:01:37.555Z,9.70
2019-05-16T20:05:39.924Z,9.60
2019-05-16T20:09:41.957Z,9.50
2019-05-16T20:13:56.747Z,9.50
2019-05-16T20:17:56.123Z,9.50
2019-05-16T20:21:55.035Z,9.50
2019-05-16T20:25:56.982Z,9.40
2019-05-16T20:29:59.235Z,9.30
2019-05-16T20:33:58.644Z,9.40
2019-05-16T20:37:59.288Z,9.40
2019-05-16T20:42:02.192Z,9.40
2019-05-16T20:46:07.084Z,9.30
2019-05-16T20:50:08.487Z,9.30
2019-05-16T20:54:12.226Z,9.30
2019-05-16T20:58:12.222Z,9.30
2019-05-16T21:02:27.491Z,9.20
2019-05-16T21:06:27.126Z,9.20
2019-05-16T21:10:40.898Z,9.20
2019-05-16T21:14:44.025Z,9.10
2019-05-16T21:18:42.610Z,9.00
2019-05-16T21:22:41.164Z,9.00
2019-05-16T21:26:41.325Z,9.00
2019-05-16T21:30:52.079Z,9.00
2019-05-16T21:34:56.606Z,9.00
2019-05-16T21:39:08.592Z,9.00
2019-05-16T21:43:13.136Z,9.00
2019-05-16T21:47:11.663Z,9.10
2019-05-16T21:51:10.287Z,9.10
2019-05-16T21:55:09.493Z,9.10
2019-05-16T21:59:16.358Z,9.10
2019-05-16T22:03:15.311Z,9.10
2019-05-16T22:07:16.791Z,9.10
2019-05-16T22:11:17.790Z,9.00
2019-05-16T22:15:21.728Z,9.00
2019-05-16T22:19:23.307Z,9.00
2019-05-16T22:23:21.953Z,9.00
2019-05-16T22:27:32.426Z,9.00
2019-05-16T22:31:39.179Z,9.00
2019-05-16T22:35:37.758Z,9.00
2019-05-16T22:39:43.633Z,8.90
2019-05-16T22:43:46.545Z,9.00
2019-05-16T22:47:46.536Z,8.90
2019-05-16T22:51:46.280Z,8.90
2019-05-16T22:55:44.829Z,8.90
2019-05-16T22:59:43.404Z,8.90
2019-05-16T23:03:42.056Z,8.90
2019-05-16T23:07:48.438Z,8.90
2019-05-16T23:11:49.517Z,8.90
2019-05-16T23:15:46.759Z,8.90
2019-05-16T23:19:47.476Z,8.80
2019-05-16T23:23:56.989Z,8.80
2019-05-16T23:27:50.582Z,8.80
2019-05-16T23:31:50.912Z,8.80
2019-05-16T23:35:57.514Z,8.80
2019-05-16T23:39:57.899Z,8.70
2019-05-16T23:44:09.074Z,8.70
2019-05-16T23:48:09.521Z,8.70
2019-05-16T23:52:08.413Z,8.70
2019-05-16T23:56:10.422Z,8.70
